createdAt,value
2022-09-12T00:01:07.123Z,15.69
2022-09-12T00:03:36.474Z,16.01
2022-09-12T00:06:09.299Z,16.35
2022-09-12T00:08:37.559Z,16.04
2022-09-12T00:11:09.473Z,15.81
2022-09-12T00:13:41.442Z,15.64
2022-09-12T00:16:21.671Z,15.64
2022-09-12T00:18:49.565Z,16.52
2022-09-12T00:21:17.887Z,16.11
2022-09-12T00:23:46.133Z,16.19
2022-09-12T00:26:14.207Z,16.35
2022-09-12T00:28:42.087Z,16.81
2022-09-12T00:31:15.681Z,16.96
2022-09-12T00:33:43.794Z,16.82
2022-09-12T00:36:16.972Z,16.90
2022-09-12T00:38:45.501Z,16.50
2022-09-12T00:41:37.570Z,16.75
2022-09-12T00:44:24.167Z,17.16
2022-09-12T00:47:01.326Z,16.81
2022-09-12T00:49:49.685Z,16.52
2022-09-12T00:52:22.453Z,15.80
2022-09-12T00:54:56.092Z,15.39
2022-09-12T00:57:28.482Z,14.85
2022-09-12T01:00:17.463Z,15.79
2022-09-12T01:02:48.263Z,16.11
2022-09-12T01:05:16.204Z,16.21
2022-09-12T01:07:44.713Z,16.43
2022-09-12T01:10:12.185Z,16.13
2022-09-12T01:12:41.352Z,16.21
2022-09-12T01:15:09.231Z,15.97
2022-09-12T01:18:27.690Z,15.90
2022-09-12T01:21:00.136Z,16.40
2022-09-12T01:24:15.105Z,16.18
2022-09-12T01:26:58.141Z,15.99
2022-09-12T01:29:40.552Z,15.67
2022-09-12T01:32:23.683Z,15.67
2022-09-12T01:35:10.065Z,15.69
2022-09-12T01:37:51.604Z,15.52
2022-09-12T01:40:24.035Z,15.54
2022-09-12T01:43:16.066Z,15.42
2022-09-12T01:45:46.719Z,15.46
2022-09-12T01:48:21.127Z,15.48
2022-09-12T01:51:02.519Z,15.53
2022-09-12T01:53:35.228Z,15.58
2022-09-12T01:56:08.843Z,15.12
2022-09-12T01:58:50.722Z,15.28
2022-09-12T02:01:21.923Z,15.44
2022-09-12T02:03:54.205Z,15.37
2022-09-12T02:06:33.034Z,15.14
2022-09-12T02:09:08.224Z,15.34
2022-09-12T02:11:39.888Z,15.10
2022-09-12T02:14:11.524Z,14.30
2022-09-12T02:16:51.578Z,14.65
2022-09-12T02:19:29.998Z,14.93
2022-09-12T02:22:02.454Z,15.23
2022-09-12T02:24:34.102Z,15.53
2022-09-12T02:27:24.993Z,15.03
2022-09-12T02:29:53.501Z,15.43
2022-09-12T02:32:35.136Z,15.80
2022-09-12T02:35:31.203Z,15.73
2022-09-12T02:38:11.630Z,15.51
2022-09-12T02:40:39.293Z,16.21
2022-09-12T02:43:07.313Z,16.36
2022-09-12T02:45:35.975Z,15.68
2022-09-12T02:48:03.786Z,16.40
2022-09-12T02:50:32.157Z,15.67
2022-09-12T02:53:04.937Z,15.78
2022-09-12T02:55:33.616Z,15.80
2022-09-12T02:58:06.360Z,16.00
2022-09-12T03:00:59.055Z,16.12
2022-09-12T03:03:54.257Z,16.25
2022-09-12T03:06:36.233Z,16.19
2022-09-12T03:09:14.099Z,15.77
2022-09-12T03:11:53.984Z,15.38
2022-09-12T03:14:43.079Z,14.93
2022-09-12T03:17:35.925Z,15.21
2022-09-12T03:20:25.144Z,16.37
2022-09-12T03:23:04.442Z,16.23
2022-09-12T03:25:35.982Z,15.14
2022-09-12T03:28:08.156Z,15.87
2022-09-12T03:30:44.115Z,15.66
2022-09-12T03:33:13.615Z,14.60
2022-09-12T03:35:41.496Z,14.20
2022-09-12T03:38:09.153Z,15.37
2022-09-12T03:40:38.325Z,15.45
2022-09-12T03:43:06.393Z,15.11
2022-09-12T03:45:34.163Z,15.21
2022-09-12T03:48:02.514Z,15.06
2022-09-12T03:50:30.033Z,15.08
2022-09-12T03:52:59.686Z,15.11
2022-09-12T03:55:27.566Z,14.95
2022-09-12T03:57:55.309Z,15.01
2022-09-12T04:00:22.872Z,15.08
2022-09-12T04:02:55.161Z,14.89
2022-09-12T04:05:23.655Z,14.98
2022-09-12T04:07:51.555Z,14.80
2022-09-12T04:10:18.986Z,14.93
2022-09-12T04:12:46.361Z,14.90
2022-09-12T04:15:14.611Z,14.79
2022-09-12T04:17:42.000Z,14.77
2022-09-12T04:20:09.583Z,14.89
2022-09-12T04:22:37.215Z,14.89
2022-09-12T04:25:04.983Z,15.10
2022-09-12T04:27:32.422Z,15.43
2022-09-12T04:30:01.205Z,15.59
2022-09-12T04:32:30.983Z,15.36
2022-09-12T04:34:58.479Z,14.61
2022-09-12T04:37:26.283Z,15.29
2022-09-12T04:39:57.821Z,15.50
2022-09-12T04:42:26.207Z,15.27
2022-09-12T04:44:53.551Z,14.84
2022-09-12T04:47:21.059Z,14.60
2022-09-12T04:49:48.888Z,15.13
2022-09-12T04:52:16.665Z,14.91
2022-09-12T04:54:44.119Z,14.97
2022-09-12T04:57:11.765Z,14.83
2022-09-12T04:59:39.457Z,14.83
2022-09-12T05:02:06.840Z,15.41
2022-09-12T05:04:34.911Z,15.44
2022-09-12T05:07:02.925Z,15.70
2022-09-12T05:09:30.311Z,14.43
2022-09-12T05:12:05.750Z,14.33
2022-09-12T05:14:34.257Z,14.79
2022-09-12T05:17:02.796Z,15.23
2022-09-12T05:19:30.990Z,15.64
2022-09-12T05:21:59.044Z,15.98
2022-09-12T05:24:26.892Z,14.99
2022-09-12T05:26:54.242Z,15.84
2022-09-12T05:29:22.052Z,15.85
2022-09-12T05:31:52.110Z,16.02
2022-09-12T05:34:20.737Z,16.04
2022-09-12T05:36:49.125Z,16.06
2022-09-12T05:39:16.889Z,16.41
2022-09-12T05:41:44.255Z,16.12
2022-09-12T05:44:12.622Z,16.15
2022-09-12T05:46:42.496Z,16.47
2022-09-12T05:49:12.083Z,16.69
2022-09-12T05:51:42.683Z,16.35
2022-09-12T05:54:12.033Z,17.05
2022-09-12T05:56:59.365Z,16.33
2022-09-12T05:59:28.486Z,16.36
2022-09-12T06:01:56.214Z,17.03
2022-09-12T06:04:23.950Z,17.14
2022-09-12T06:06:51.943Z,17.19
2022-09-12T06:09:19.363Z,16.83
2022-09-12T06:11:47.344Z,16.63
2022-09-12T06:14:16.503Z,15.86
2022-09-12T06:16:43.922Z,16.39
2022-09-12T06:19:19.122Z,16.35
2022-09-12T06:21:48.049Z,16.00
2022-09-12T06:24:16.342Z,16.08
2022-09-12T06:26:43.929Z,16.03
2022-09-12T06:29:11.905Z,16.16
2022-09-12T06:31:42.117Z,16.50
2022-09-12T06:34:12.207Z,16.68
2022-09-12T06:36:43.182Z,16.52
2022-09-12T06:39:12.714Z,16.33
2022-09-12T06:41:43.962Z,16.16
2022-09-12T06:44:17.140Z,16.55
2022-09-12T06:46:45.382Z,16.99
2022-09-12T06:49:13.431Z,17.09
2022-09-12T06:51:43.575Z,17.06
2022-09-12T06:54:15.708Z,16.54
2022-09-12T06:56:43.219Z,16.91
2022-09-12T06:59:10.931Z,16.88
2022-09-12T07:01:38.426Z,17.24
2022-09-12T07:04:06.179Z,17.19
2022-09-12T07:06:41.552Z,17.37
2022-09-12T07:09:14.400Z,17.27
2022-09-12T07:11:42.370Z,16.87
2022-09-12T07:14:12.969Z,17.19
2022-09-12T07:16:40.367Z,17.25
2022-09-12T07:19:09.021Z,17.19
2022-09-12T07:21:40.031Z,17.01
2022-09-12T07:24:09.904Z,16.76
2022-09-12T07:26:38.694Z,17.32
2022-09-12T07:29:32.772Z,17.25
2022-09-12T07:31:53.832Z,17.28
2022-09-12T07:34:21.214Z,17.74
2022-09-12T07:36:48.573Z,17.47
2022-09-12T07:39:16.347Z,17.72
2022-09-12T07:41:43.777Z,17.99
2022-09-12T07:44:11.175Z,17.86
2022-09-12T07:46:39.957Z,17.79
2022-09-12T07:49:08.559Z,17.95
2022-09-12T07:51:36.103Z,18.00
2022-09-12T07:54:07.864Z,17.52
2022-09-12T07:56:38.906Z,17.79
2022-09-12T07:59:08.399Z,18.43
2022-09-12T08:01:36.381Z,17.59
2022-09-12T08:04:05.202Z,17.55
2022-09-12T08:06:35.904Z,17.71
2022-09-12T08:09:04.892Z,17.82
2022-09-12T08:11:32.390Z,18.67
2022-09-12T08:14:01.774Z,19.51
2022-09-12T08:16:31.331Z,20.51
2022-09-12T08:19:01.028Z,21.09
2022-09-12T08:21:31.521Z,21.55
2022-09-12T08:24:01.323Z,21.84
2022-09-12T08:26:29.620Z,22.07
2022-09-12T08:28:57.070Z,22.09
2022-09-12T08:31:25.603Z,21.86
2022-09-12T08:33:56.103Z,20.62
2022-09-12T08:36:25.772Z,22.03
2022-09-12T08:39:02.393Z,20.92
2022-09-12T08:41:31.980Z,21.79
2022-09-12T08:44:32.105Z,21.56
2022-09-12T08:47:08.768Z,21.36
2022-09-12T08:49:44.626Z,21.26
2022-09-12T08:52:17.479Z,20.52
2022-09-12T08:54:47.943Z,19.63
2022-09-12T08:57:15.827Z,20.86
2022-09-12T08:59:44.914Z,20.76
2022-09-12T09:02:24.875Z,20.80
2022-09-12T09:04:57.266Z,20.41
2022-09-12T09:07:37.479Z,20.75
2022-09-12T09:10:23.086Z,20.28
2022-09-12T09:13:08.859Z,20.54
2022-09-12T09:16:11.771Z,20.86
2022-09-12T09:18:40.049Z,21.29
2022-09-12T09:21:20.422Z,20.53
2022-09-12T09:23:53.584Z,21.13
2022-09-12T09:26:56.517Z,20.95
2022-09-12T09:29:28.259Z,21.24
2022-09-12T09:31:57.889Z,21.49
2022-09-12T09:34:30.197Z,21.50
2022-09-12T09:37:01.387Z,21.12
2022-09-12T09:39:49.193Z,21.08
2022-09-12T09:42:23.460Z,21.32
2022-09-12T09:44:53.148Z,20.97
2022-09-12T09:47:20.712Z,20.04
2022-09-12T09:49:48.055Z,20.60
2022-09-12T09:52:17.609Z,20.81
2022-09-12T09:54:49.627Z,20.98
2022-09-12T09:57:35.606Z,20.22
2022-09-12T10:00:22.701Z,20.75
2022-09-12T10:03:13.379Z,21.02
2022-09-12T10:05:53.117Z,21.35
2022-09-12T10:08:22.150Z,21.63
2022-09-12T10:11:19.458Z,21.79
2022-09-12T10:14:00.603Z,22.29
2022-09-12T10:16:33.246Z,22.04
2022-09-12T10:19:03.151Z,21.52
2022-09-12T10:21:41.368Z,20.96
2022-09-12T10:24:33.358Z,21.07
2022-09-12T10:27:23.291Z,21.36
2022-09-12T10:29:55.961Z,21.55
2022-09-12T10:32:36.362Z,21.53
2022-09-12T10:35:09.240Z,21.71
2022-09-12T10:37:39.639Z,21.37
2022-09-12T10:40:21.606Z,20.59
2022-09-12T10:42:50.396Z,21.29
2022-09-12T10:45:31.175Z,20.31
2022-09-12T10:48:05.415Z,19.53
2022-09-12T10:50:42.739Z,19.34
2022-09-12T10:53:34.765Z,19.32
2022-09-12T10:56:07.324Z,19.76
2022-09-12T10:58:39.537Z,19.67
2022-09-12T11:01:17.772Z,20.55
2022-09-12T11:04:10.230Z,20.28
2022-09-12T11:07:01.940Z,19.78
2022-09-12T11:09:39.544Z,19.57
2022-09-12T11:12:10.419Z,19.32
2022-09-12T11:15:00.698Z,19.57
2022-09-12T11:17:52.047Z,19.47
2022-09-12T11:20:42.158Z,19.31
2022-09-12T11:23:47.599Z,18.97
2022-09-12T11:26:19.173Z,19.05
2022-09-12T11:29:19.328Z,19.16
2022-09-12T11:31:56.992Z,19.16
2022-09-12T11:34:44.845Z,20.14
2022-09-12T11:37:25.203Z,19.45
2022-09-12T11:39:55.622Z,19.27
2022-09-12T11:42:29.406Z,19.13
2022-09-12T11:45:05.921Z,19.19
2022-09-12T11:47:35.245Z,19.21
2022-09-12T11:50:06.022Z,19.61
2022-09-12T11:52:37.407Z,19.87
2022-09-12T11:55:20.125Z,19.28
2022-09-12T11:57:54.242Z,19.22
2022-09-12T12:00:32.920Z,19.52
2022-09-12T12:03:06.571Z,19.77
2022-09-12T12:05:54.409Z,19.43
2022-09-12T12:08:27.586Z,20.83
2022-09-12T12:11:07.848Z,20.94
2022-09-12T12:13:48.490Z,20.90
2022-09-12T12:16:21.480Z,21.07
2022-09-12T12:18:55.694Z,20.05
2022-09-12T12:21:32.051Z,21.09
2022-09-12T12:24:04.839Z,21.04
2022-09-12T12:26:41.484Z,21.20
2022-09-12T12:29:13.946Z,20.49
2022-09-12T12:32:10.360Z,20.79
2022-09-12T12:34:43.011Z,20.16
2022-09-12T12:37:19.325Z,19.74
2022-09-12T12:39:48.093Z,20.40
2022-09-12T12:43:02.514Z,19.69
2022-09-12T12:45:30.054Z,20.15
2022-09-12T12:48:05.083Z,20.75
2022-09-12T12:50:35.788Z,19.97
2022-09-12T12:53:05.449Z,20.15
2022-09-12T12:55:35.169Z,20.42
2022-09-12T12:58:03.449Z,21.12
2022-09-12T13:00:40.065Z,20.51
2022-09-12T13:03:10.643Z,20.79
2022-09-12T13:05:44.371Z,21.26
2022-09-12T13:08:28.820Z,20.88
2022-09-12T13:10:59.852Z,21.34
2022-09-12T13:13:36.399Z,21.80
2022-09-12T13:16:03.972Z,21.93
2022-09-12T13:18:52.035Z,21.18
2022-09-12T13:21:21.610Z,22.31
2022-09-12T13:24:02.582Z,22.07
2022-09-12T13:26:35.510Z,21.83
2022-09-12T13:29:15.773Z,21.71
2022-09-12T13:31:47.339Z,21.86
2022-09-12T13:34:21.340Z,21.92
2022-09-12T13:37:12.488Z,21.78
2022-09-12T13:39:40.090Z,22.23
2022-09-12T13:42:48.573Z,22.21
2022-09-12T13:45:21.246Z,22.37
2022-09-12T13:47:58.540Z,22.37
2022-09-12T13:50:29.084Z,22.30
2022-09-12T13:52:59.277Z,22.12
2022-09-12T13:55:35.202Z,21.95
2022-09-12T13:58:14.046Z,22.13
2022-09-12T14:00:41.685Z,21.19
2022-09-12T14:03:44.693Z,21.00
2022-09-12T14:06:12.888Z,22.07
2022-09-12T14:08:43.480Z,21.19
2022-09-12T14:11:11.728Z,21.88
2022-09-12T14:13:39.359Z,21.27
2022-09-12T14:16:10.109Z,21.70
2022-09-12T14:18:38.734Z,22.02
2022-09-12T14:21:36.892Z,22.09
2022-09-12T14:24:07.004Z,22.33
2022-09-12T14:26:36.559Z,22.44
2022-09-12T14:29:07.888Z,22.78
2022-09-12T14:31:37.559Z,22.26
2022-09-12T14:34:11.132Z,22.43
2022-09-12T14:36:56.328Z,21.99
2022-09-12T14:39:33.946Z,21.56
2022-09-12T14:42:17.025Z,22.06
2022-09-12T14:44:53.295Z,21.88
2022-09-12T14:47:23.608Z,21.83
2022-09-12T14:49:54.114Z,21.22
2022-09-12T14:52:23.547Z,21.74
2022-09-12T14:55:03.629Z,21.68
2022-09-12T14:57:35.347Z,21.66
2022-09-12T15:00:14.754Z,22.44
2022-09-12T15:02:43.363Z,22.25
2022-09-12T15:05:11.078Z,22.18
2022-09-12T15:07:40.506Z,22.10
2022-09-12T15:10:18.860Z,21.64
2022-09-12T15:12:46.514Z,22.16
2022-09-12T15:15:16.331Z,21.66
2022-09-12T15:17:43.971Z,21.93
2022-09-12T15:20:13.154Z,22.07
2022-09-12T15:22:40.885Z,21.42
2022-09-12T15:25:09.814Z,22.04
2022-09-12T15:27:40.859Z,22.31
2022-09-12T15:30:10.364Z,22.41
2022-09-12T15:32:38.061Z,22.06
2022-09-12T15:35:15.805Z,22.26
2022-09-12T15:37:43.495Z,22.38
2022-09-12T15:40:12.244Z,22.62
2022-09-12T15:42:39.795Z,22.41
2022-09-12T15:45:17.545Z,22.48
2022-09-12T15:47:44.922Z,22.15
2022-09-12T15:50:12.784Z,21.98
2022-09-12T15:52:41.036Z,21.97
2022-09-12T15:55:20.775Z,21.60
2022-09-12T15:57:48.844Z,21.65
2022-09-12T16:00:17.849Z,21.45
2022-09-12T16:02:47.022Z,21.72
2022-09-12T16:05:17.698Z,21.64
2022-09-12T16:07:45.551Z,21.77
2022-09-12T16:10:17.362Z,22.04
2022-09-12T16:12:46.140Z,21.95
2022-09-12T16:15:16.110Z,21.82
2022-09-12T16:17:43.620Z,21.83
2022-09-12T16:20:11.505Z,21.71
2022-09-12T16:22:39.267Z,21.52
2022-09-12T16:25:07.995Z,21.17
2022-09-12T16:27:36.382Z,21.10
2022-09-12T16:30:06.375Z,21.20
2022-09-12T16:32:33.735Z,20.85
2022-09-12T16:35:01.987Z,21.24
2022-09-12T16:37:29.448Z,21.25
2022-09-12T16:39:56.953Z,20.93
2022-09-12T16:42:24.692Z,21.15
2022-09-12T16:44:52.461Z,21.39
2022-09-12T16:47:19.990Z,21.23
2022-09-12T16:49:47.633Z,21.21
2022-09-12T16:52:16.674Z,21.12
2022-09-12T16:54:46.808Z,21.63
2022-09-12T16:57:14.815Z,21.48
2022-09-12T16:59:42.191Z,21.47
2022-09-12T17:02:13.704Z,21.45
2022-09-12T17:04:41.727Z,21.07
2022-09-12T17:07:09.283Z,20.99
2022-09-12T17:09:36.755Z,20.86
2022-09-12T17:12:04.518Z,20.64
2022-09-12T17:14:31.966Z,20.54
2022-09-12T17:16:59.443Z,20.68
2022-09-12T17:19:29.783Z,20.56
2022-09-12T17:21:57.662Z,20.25
2022-09-12T17:24:25.630Z,20.60
2022-09-12T17:26:53.908Z,20.55
2022-09-12T17:29:22.896Z,20.12
2022-09-12T17:31:50.476Z,20.12
2022-09-12T17:34:18.316Z,19.58
2022-09-12T17:36:46.290Z,20.16
2022-09-12T17:39:14.735Z,19.81
2022-09-12T17:41:42.946Z,19.27
2022-09-12T17:44:14.971Z,18.49
2022-09-12T17:46:42.865Z,19.29
2022-09-12T17:49:18.700Z,18.66
2022-09-12T17:51:46.709Z,19.40
2022-09-12T17:54:17.345Z,18.63
2022-09-12T17:56:46.653Z,18.39
2022-09-12T17:59:17.534Z,19.26
2022-09-12T18:02:03.926Z,18.80
2022-09-12T18:04:32.822Z,19.03
2022-09-12T18:07:00.690Z,19.76
2022-09-12T18:09:28.676Z,19.68
2022-09-12T18:11:57.397Z,19.74
2022-09-12T18:14:27.460Z,19.86
2022-09-12T18:16:57.320Z,19.62
2022-09-12T18:19:25.293Z,19.45
2022-09-12T18:21:54.790Z,19.06
2022-09-12T18:24:22.826Z,18.39
2022-09-12T18:26:50.948Z,18.26
2022-09-12T18:29:20.337Z,18.81
2022-09-12T18:31:47.954Z,18.50
2022-09-12T18:34:16.942Z,18.70
2022-09-12T18:36:47.296Z,18.95
2022-09-12T18:39:16.011Z,18.47
2022-09-12T18:41:44.395Z,18.52
2022-09-12T18:44:12.835Z,18.40
2022-09-12T18:46:41.005Z,18.22
2022-09-12T18:49:09.487Z,18.20
2022-09-12T18:51:40.270Z,18.26
2022-09-12T18:54:13.421Z,18.05
2022-09-12T18:56:43.576Z,18.14
2022-09-12T18:59:14.389Z,17.93
2022-09-12T19:01:43.221Z,18.09
2022-09-12T19:04:12.959Z,18.62
2022-09-12T19:06:42.567Z,18.92
2022-09-12T19:09:11.746Z,18.32
2022-09-12T19:11:42.823Z,18.67
2022-09-12T19:14:10.617Z,18.64
2022-09-12T19:16:38.519Z,18.54
2022-09-12T19:19:07.162Z,18.72
2022-09-12T19:21:37.154Z,18.70
2022-09-12T19:24:10.470Z,18.59
2022-09-12T19:26:39.483Z,18.35
2022-09-12T19:29:08.719Z,18.14
2022-09-12T19:31:36.483Z,18.08
2022-09-12T19:34:08.182Z,18.58
2022-09-12T19:36:51.706Z,18.42
2022-09-12T19:39:19.983Z,18.45
2022-09-12T19:41:48.515Z,18.73
2022-09-12T19:44:19.189Z,18.72
2022-09-12T19:46:47.260Z,18.60
2022-09-12T19:49:15.094Z,18.32
2022-09-12T19:51:43.965Z,18.74
2022-09-12T19:54:11.708Z,18.92
2022-09-12T19:56:39.609Z,18.57
2022-09-12T19:59:07.029Z,18.69
2022-09-12T20:01:37.338Z,18.85
2022-09-12T20:04:05.648Z,18.10
2022-09-12T20:06:33.025Z,17.73
2022-09-12T20:09:00.419Z,17.28
2022-09-12T20:11:28.411Z,17.27
2022-09-12T20:13:55.763Z,17.24
2022-09-12T20:16:29.657Z,17.00
2022-09-12T20:19:00.726Z,17.32
2022-09-12T20:21:31.910Z,17.29
2022-09-12T20:24:08.513Z,18.23
2022-09-12T20:26:36.558Z,16.40
2022-09-12T20:29:05.559Z,15.67
2022-09-12T20:31:33.900Z,15.63
2022-09-12T20:34:01.479Z,15.96
2022-09-12T20:36:29.170Z,16.22
2022-09-12T20:39:00.022Z,16.20
2022-09-12T20:41:29.682Z,16.23
2022-09-12T20:43:58.137Z,15.95
2022-09-12T20:46:27.188Z,16.38
2022-09-12T20:48:54.811Z,16.69
2022-09-12T20:51:23.163Z,16.80
2022-09-12T20:53:54.472Z,17.36
2022-09-12T20:56:23.496Z,17.52
2022-09-12T20:58:51.117Z,17.70
2022-09-12T21:01:18.673Z,17.16
2022-09-12T21:03:46.604Z,16.93
2022-09-12T21:06:17.019Z,16.52
2022-09-12T21:08:45.874Z,15.90
2022-09-12T21:11:14.056Z,16.33
2022-09-12T21:13:41.759Z,17.20
2022-09-12T21:16:14.681Z,15.73
2022-09-12T21:18:42.795Z,15.27
2022-09-12T21:21:11.988Z,16.51
2022-09-12T21:23:39.928Z,16.28
2022-09-12T21:26:08.136Z,14.26
2022-09-12T21:28:35.667Z,13.67
2022-09-12T21:31:03.324Z,14.02
2022-09-12T21:33:31.107Z,13.79
2022-09-12T21:36:05.734Z,13.66
2022-09-12T21:38:33.522Z,13.92
2022-09-12T21:41:09.449Z,13.41
2022-09-12T21:43:37.746Z,13.80
2022-09-12T21:46:06.206Z,13.41
2022-09-12T21:48:34.122Z,13.59
2022-09-12T21:51:01.964Z,14.48
2022-09-12T21:53:29.341Z,15.08
2022-09-12T21:56:01.470Z,14.96
2022-09-12T21:58:29.158Z,15.06
2022-09-12T22:00:56.957Z,14.69
2022-09-12T22:03:26.089Z,13.88
2022-09-12T22:06:01.604Z,14.04
2022-09-12T22:08:30.333Z,13.38
2022-09-12T22:10:59.644Z,13.42
2022-09-12T22:13:27.249Z,13.15
2022-09-12T22:15:55.060Z,13.02
2022-09-12T22:18:22.529Z,13.52
2022-09-12T22:20:50.020Z,13.25
2022-09-12T22:23:36.473Z,13.42
2022-09-12T22:26:03.854Z,13.52
2022-09-12T22:28:32.266Z,13.15
2022-09-12T22:30:59.827Z,13.16
2022-09-12T22:33:28.087Z,13.31
2022-09-12T22:35:55.697Z,13.51
2022-09-12T22:38:23.054Z,13.95
2022-09-12T22:40:50.452Z,14.01
2022-09-12T22:43:19.148Z,14.36
2022-09-12T22:45:46.706Z,14.59
2022-09-12T22:48:14.239Z,14.71
2022-09-12T22:50:41.912Z,14.84
2022-09-12T22:53:09.294Z,14.56
2022-09-12T22:55:36.755Z,14.21
2022-09-12T22:58:04.420Z,14.42
2022-09-12T23:00:32.035Z,13.55
2022-09-12T23:02:59.544Z,13.48
2022-09-12T23:05:27.558Z,13.63
2022-09-12T23:07:55.613Z,14.48
2022-09-12T23:10:22.977Z,14.81
2022-09-12T23:12:50.585Z,14.96
2022-09-12T23:15:17.948Z,14.98
2022-09-12T23:17:45.325Z,14.98
2022-09-12T23:20:12.957Z,14.81
2022-09-12T23:22:40.346Z,14.38
2022-09-12T23:25:08.914Z,13.76
2022-09-12T23:27:36.540Z,13.70
2022-09-12T23:30:04.207Z,14.26
2022-09-12T23:32:31.613Z,14.23
2022-09-12T23:34:59.394Z,13.60
2022-09-12T23:37:27.039Z,13.96
2022-09-12T23:39:54.411Z,14.83
2022-09-12T23:42:22.299Z,15.07
2022-09-12T23:44:49.681Z,15.26
2022-09-12T23:47:18.449Z,14.58
2022-09-12T23:49:46.083Z,13.06
2022-09-12T23:52:13.445Z,12.41
2022-09-12T23:54:40.804Z,12.15
2022-09-12T23:57:08.444Z,12.42
2022-09-12T23:59:35.875Z,12.41
